createdAt,value
2018-02-25T00:00:38.542Z,1027.85
2018-02-25T00:01:19.266Z,1027.79
2018-02-25T00:02:00.065Z,1027.81
2018-02-25T00:02:41.034Z,1027.71
2018-02-25T00:03:21.765Z,1027.75
2018-02-25T00:04:02.760Z,1027.74
2018-02-25T00:04:43.563Z,1027.77
2018-02-25T00:05:25.264Z,1027.74
2018-02-25T00:06:06.288Z,1027.75
2018-02-25T00:06:47.066Z,1027.71
2018-02-25T00:07:27.741Z,1027.73
2018-02-25T00:08:08.648Z,1027.69
2018-02-25T00:08:49.473Z,1027.69
2018-02-25T00:09:30.338Z,1027.7
2018-02-25T00:10:11.448Z,1027.66
2018-02-25T00:10:52.455Z,1027.66
2018-02-25T00:11:33.356Z,1027.68
2018-02-25T00:12:14.908Z,1027.66
2018-02-25T00:12:55.999Z,1027.63
2018-02-25T00:13:36.895Z,1027.64
2018-02-25T00:14:17.945Z,1027.65
2018-02-25T00:14:59.435Z,1027.62
2018-02-25T00:15:40.184Z,1027.64
2018-02-25T00:16:21.218Z,1027.67
2018-02-25T00:17:02.130Z,1027.61
2018-02-25T00:17:43.104Z,1027.64
2018-02-25T00:18:23.804Z,1027.62
2018-02-25T00:19:04.471Z,1027.64
2018-02-25T00:19:45.044Z,1027.6
2018-02-25T00:20:25.598Z,1027.63
2018-02-25T00:21:06.159Z,1027.61
2018-02-25T00:21:46.683Z,1027.64
2018-02-25T00:22:27.251Z,1027.63
2018-02-25T00:23:07.814Z,1027.58
2018-02-25T00:23:48.373Z,1027.61
2018-02-25T00:24:29.012Z,1027.61
2018-02-25T00:25:09.491Z,1027.69
2018-02-25T00:25:50.044Z,1027.68
2018-02-25T00:26:30.593Z,1027.66
2018-02-25T00:27:11.150Z,1027.66
2018-02-25T00:27:51.677Z,1027.67
2018-02-25T00:28:32.290Z,1027.67
2018-02-25T00:29:12.930Z,1027.63
2018-02-25T00:29:53.475Z,1027.63
2018-02-25T00:30:34.041Z,1027.64
2018-02-25T00:31:14.658Z,1027.62
2018-02-25T00:31:55.257Z,1027.6
2018-02-25T00:32:35.907Z,1027.65
2018-02-25T00:33:16.493Z,1027.63
2018-02-25T00:33:57.030Z,1027.62
2018-02-25T00:34:37.674Z,1027.65
2018-02-25T00:35:18.285Z,1027.59
2018-02-25T00:35:58.801Z,1027.57
2018-02-25T00:36:39.352Z,1027.57
2018-02-25T00:37:19.914Z,1027.55
2018-02-25T00:38:00.497Z,1027.63
2018-02-25T00:38:41.085Z,1027.61
2018-02-25T00:39:21.620Z,1027.63
2018-02-25T00:40:02.188Z,1027.61
2018-02-25T00:40:42.725Z,1027.6
2018-02-25T00:41:23.310Z,1027.64
2018-02-25T00:42:03.916Z,1027.61
2018-02-25T00:42:44.503Z,1027.62
2018-02-25T00:43:25.057Z,1027.66
2018-02-25T00:44:05.630Z,1027.63
2018-02-25T00:44:46.181Z,1027.67
2018-02-25T00:45:26.732Z,1027.65
2018-02-25T00:46:07.284Z,1027.63
2018-02-25T00:46:47.887Z,1027.62
2018-02-25T00:47:28.432Z,1027.66
2018-02-25T00:48:08.991Z,1027.64
2018-02-25T00:48:49.512Z,1027.6
2018-02-25T00:49:30.060Z,1027.63
2018-02-25T00:50:10.608Z,1027.6
2018-02-25T00:50:51.158Z,1027.63
2018-02-25T00:51:31.711Z,1027.54
2018-02-25T00:52:12.249Z,1027.61
2018-02-25T00:52:52.812Z,1027.56
2018-02-25T00:53:33.357Z,1027.56
2018-02-25T00:54:13.924Z,1027.5
2018-02-25T00:54:54.481Z,1027.61
2018-02-25T00:55:35.029Z,1027.61
2018-02-25T00:56:15.583Z,1027.56
2018-02-25T00:56:56.127Z,1027.58
2018-02-25T00:57:36.741Z,1027.54
2018-02-25T00:58:17.290Z,1027.58
2018-02-25T00:58:57.842Z,1027.57
2018-02-25T00:59:38.393Z,1027.54
2018-02-25T01:00:18.944Z,1027.56
2018-02-25T01:00:59.504Z,1027.51
2018-02-25T01:01:40.061Z,1027.54
2018-02-25T01:02:20.618Z,1027.55
2018-02-25T01:03:01.165Z,1027.56
2018-02-25T01:03:41.727Z,1027.58
2018-02-25T01:04:22.282Z,1027.54
2018-02-25T01:05:02.836Z,1027.59
2018-02-25T01:05:43.392Z,1027.55
2018-02-25T01:06:23.963Z,1027.6
2018-02-25T01:07:04.536Z,1027.56
2018-02-25T01:07:45.046Z,1027.56
2018-02-25T01:08:25.620Z,1027.56
2018-02-25T01:09:06.151Z,1027.53
2018-02-25T01:09:46.710Z,1027.5
2018-02-25T01:10:27.299Z,1027.51
2018-02-25T01:11:07.856Z,1027.54
2018-02-25T01:11:48.398Z,1027.5
2018-02-25T01:12:28.947Z,1027.5
2018-02-25T01:13:09.496Z,1027.49
2018-02-25T01:13:50.040Z,1027.51
2018-02-25T01:14:30.641Z,1027.51
2018-02-25T01:15:11.141Z,1027.51
2018-02-25T01:15:51.735Z,1027.52
2018-02-25T01:16:32.305Z,1027.51
2018-02-25T01:17:12.870Z,1027.49
2018-02-25T01:17:53.413Z,1027.5
2018-02-25T01:18:33.955Z,1027.49
2018-02-25T01:19:14.501Z,1027.47
2018-02-25T01:19:55.062Z,1027.48
2018-02-25T01:20:35.613Z,1027.47
2018-02-25T01:21:16.167Z,1027.44
2018-02-25T01:21:56.729Z,1027.44
2018-02-25T01:22:37.298Z,1027.44
2018-02-25T01:23:17.858Z,1027.42
2018-02-25T01:23:58.392Z,1027.37
2018-02-25T01:24:38.942Z,1027.39
2018-02-25T01:25:19.496Z,1027.44
2018-02-25T01:26:00.066Z,1027.39
2018-02-25T01:26:40.602Z,1027.4
2018-02-25T01:27:21.160Z,1027.42
2018-02-25T01:28:01.699Z,1027.4
2018-02-25T01:28:42.246Z,1027.38
2018-02-25T01:29:22.813Z,1027.39
2018-02-25T01:30:03.410Z,1027.38
2018-02-25T01:30:43.961Z,1027.41
2018-02-25T01:31:24.504Z,1027.41
2018-02-25T01:32:05.052Z,1027.41
2018-02-25T01:32:45.614Z,1027.37
2018-02-25T01:33:26.164Z,1027.39
2018-02-25T01:34:06.714Z,1027.39
2018-02-25T01:34:47.257Z,1027.33
2018-02-25T01:35:27.834Z,1027.36
2018-02-25T01:36:08.400Z,1027.38
2018-02-25T01:36:48.935Z,1027.33
2018-02-25T01:37:29.489Z,1027.37
2018-02-25T01:38:10.040Z,1027.38
2018-02-25T01:38:50.593Z,1027.38
2018-02-25T01:39:31.154Z,1027.39
2018-02-25T01:40:11.698Z,1027.41
2018-02-25T01:40:52.250Z,1027.39
2018-02-25T01:41:32.800Z,1027.41
2018-02-25T01:42:13.402Z,1027.39
2018-02-25T01:42:53.910Z,1027.41
2018-02-25T01:43:34.469Z,1027.47
2018-02-25T01:44:15.022Z,1027.41
2018-02-25T01:44:55.597Z,1027.44
2018-02-25T01:45:36.105Z,1027.46
2018-02-25T01:46:16.665Z,1027.42
2018-02-25T01:46:57.228Z,1027.46
2018-02-25T01:47:37.779Z,1027.47
2018-02-25T01:48:18.328Z,1027.45
2018-02-25T01:48:58.883Z,1027.44
2018-02-25T01:49:39.468Z,1027.46
2018-02-25T01:50:20.015Z,1027.51
2018-02-25T01:51:00.551Z,1027.44
2018-02-25T01:51:41.088Z,1027.43
2018-02-25T01:52:21.654Z,1027.4
2018-02-25T01:53:02.170Z,1027.47
2018-02-25T01:53:42.728Z,1027.42
2018-02-25T01:54:23.275Z,1027.43
2018-02-25T01:55:03.835Z,1027.46
2018-02-25T01:55:44.365Z,1027.47
2018-02-25T01:56:24.908Z,1027.49
2018-02-25T01:57:05.467Z,1027.46
2018-02-25T01:57:46.020Z,1027.46
2018-02-25T01:58:26.573Z,1027.47
2018-02-25T01:59:07.116Z,1027.48
2018-02-25T01:59:47.661Z,1027.47
2018-02-25T02:00:28.207Z,1027.42
2018-02-25T02:01:08.769Z,1027.47
2018-02-25T02:01:49.417Z,1027.42
2018-02-25T02:02:29.967Z,1027.41
2018-02-25T02:03:10.523Z,1027.4
2018-02-25T02:03:51.066Z,1027.43
2018-02-25T02:04:31.612Z,1027.4
2018-02-25T02:05:12.199Z,1027.36
2018-02-25T02:05:52.757Z,1027.4
2018-02-25T02:06:33.330Z,1027.36
2018-02-25T02:07:13.872Z,1027.38
2018-02-25T02:07:54.450Z,1027.35
2018-02-25T02:08:35.013Z,1027.35
2018-02-25T02:09:15.598Z,1027.36
2018-02-25T02:09:56.154Z,1027.39
2018-02-25T02:10:36.704Z,1027.36
2018-02-25T02:11:17.261Z,1027.38
2018-02-25T02:11:57.819Z,1027.39
2018-02-25T02:12:38.362Z,1027.47
2018-02-25T02:13:18.905Z,1027.42
2018-02-25T02:13:59.438Z,1027.41
2018-02-25T02:14:39.999Z,1027.42
2018-02-25T02:15:20.596Z,1027.39
2018-02-25T02:16:01.090Z,1027.42
2018-02-25T02:16:41.620Z,1027.43
2018-02-25T02:17:22.207Z,1027.41
2018-02-25T02:18:02.744Z,1027.39
2018-02-25T02:18:43.253Z,1027.45
2018-02-25T02:19:23.816Z,1027.42
2018-02-25T02:20:04.364Z,1027.4
2018-02-25T02:20:44.925Z,1027.44
2018-02-25T02:21:25.479Z,1027.39
2018-02-25T02:22:06.048Z,1027.35
2018-02-25T02:22:46.626Z,1027.4
2018-02-25T02:23:27.182Z,1027.41
2018-02-25T02:24:07.739Z,1027.44
2018-02-25T02:24:48.294Z,1027.45
2018-02-25T02:25:28.895Z,1027.43
2018-02-25T02:26:09.420Z,1027.42
2018-02-25T02:26:50.076Z,1027.46
2018-02-25T02:27:30.644Z,1027.43
2018-02-25T02:28:11.201Z,1027.47
2018-02-25T02:28:51.770Z,1027.49
2018-02-25T02:29:32.271Z,1027.45
2018-02-25T02:30:12.855Z,1027.46
2018-02-25T02:30:53.425Z,1027.44
2018-02-25T02:31:33.929Z,1027.52
2018-02-25T02:32:14.481Z,1027.45
2018-02-25T02:32:55.069Z,1027.47
2018-02-25T02:33:35.771Z,1027.46
2018-02-25T02:34:16.343Z,1027.49
2018-02-25T02:34:56.904Z,1027.47
2018-02-25T02:35:37.434Z,1027.48
2018-02-25T02:36:18.050Z,1027.5
2018-02-25T02:36:58.584Z,1027.47
2018-02-25T02:37:39.152Z,1027.44
2018-02-25T02:38:19.691Z,1027.44
2018-02-25T02:39:00.248Z,1027.46
2018-02-25T02:39:40.817Z,1027.43
2018-02-25T02:40:21.358Z,1027.46
2018-02-25T02:41:01.930Z,1027.45
2018-02-25T02:41:42.500Z,1027.49
2018-02-25T02:42:23.053Z,1027.5
2018-02-25T02:43:03.668Z,1027.45
2018-02-25T02:43:44.182Z,1027.48
2018-02-25T02:44:24.713Z,1027.47
2018-02-25T02:45:05.345Z,1027.45
2018-02-25T02:45:45.885Z,1027.47
2018-02-25T02:46:26.426Z,1027.5
2018-02-25T02:47:06.980Z,1027.49
2018-02-25T02:47:47.541Z,1027.48
2018-02-25T02:48:28.100Z,1027.49
2018-02-25T02:49:08.655Z,1027.49
2018-02-25T02:49:49.223Z,1027.53
2018-02-25T02:50:29.768Z,1027.5
2018-02-25T02:51:10.321Z,1027.54
2018-02-25T02:51:50.846Z,1027.51
2018-02-25T02:52:31.421Z,1027.54
2018-02-25T02:53:11.998Z,1027.54
2018-02-25T02:53:52.565Z,1027.53
2018-02-25T02:54:33.079Z,1027.52
2018-02-25T02:55:13.634Z,1027.54
2018-02-25T02:55:54.229Z,1027.53
2018-02-25T02:56:34.742Z,1027.53
2018-02-25T02:57:15.285Z,1027.5
2018-02-25T02:57:55.833Z,1027.5
2018-02-25T02:58:36.456Z,1027.52
2018-02-25T02:59:17.043Z,1027.54
2018-02-25T02:59:57.580Z,1027.58
2018-02-25T03:00:38.157Z,1027.56
2018-02-25T03:01:18.671Z,1027.56
2018-02-25T03:01:59.288Z,1027.54
2018-02-25T03:02:39.810Z,1027.52
2018-02-25T03:03:20.388Z,1027.53
2018-02-25T03:04:00.993Z,1027.52
2018-02-25T03:04:41.535Z,1027.54
2018-02-25T03:05:22.141Z,1027.51
2018-02-25T03:06:02.709Z,1027.49
2018-02-25T03:06:43.274Z,1027.51
2018-02-25T03:07:23.823Z,1027.54
2018-02-25T03:08:04.373Z,1027.58
2018-02-25T03:08:44.921Z,1027.58
2018-02-25T03:09:25.490Z,1027.53
2018-02-25T03:10:06.119Z,1027.63
2018-02-25T03:10:46.698Z,1027.58
2018-02-25T03:11:27.241Z,1027.64
2018-02-25T03:12:07.830Z,1027.59
2018-02-25T03:12:48.377Z,1027.61
2018-02-25T03:13:28.961Z,1027.61
2018-02-25T03:14:09.536Z,1027.59
2018-02-25T03:14:50.139Z,1027.58
2018-02-25T03:15:30.670Z,1027.58
2018-02-25T03:16:11.252Z,1027.55
2018-02-25T03:16:51.794Z,1027.55
2018-02-25T03:17:32.367Z,1027.56
2018-02-25T03:18:12.912Z,1027.6
2018-02-25T03:18:53.454Z,1027.59
2018-02-25T03:19:34.014Z,1027.59
2018-02-25T03:20:14.585Z,1027.49
2018-02-25T03:20:55.152Z,1027.54
2018-02-25T03:21:35.728Z,1027.52
2018-02-25T03:22:16.337Z,1027.56
2018-02-25T03:22:56.954Z,1027.53
2018-02-25T03:23:37.521Z,1027.51
2018-02-25T03:24:18.107Z,1027.5
2018-02-25T03:24:58.685Z,1027.48
2018-02-25T03:25:39.253Z,1027.52
2018-02-25T03:26:19.802Z,1027.47
2018-02-25T03:27:00.345Z,1027.52
2018-02-25T03:27:40.921Z,1027.54
2018-02-25T03:28:21.467Z,1027.56
2018-02-25T03:29:02.005Z,1027.52
2018-02-25T03:29:42.575Z,1027.55
2018-02-25T03:30:23.154Z,1027.56
2018-02-25T03:31:03.720Z,1027.56
2018-02-25T03:31:44.329Z,1027.49
2018-02-25T03:32:24.860Z,1027.51
2018-02-25T03:33:05.419Z,1027.46
2018-02-25T03:33:45.994Z,1027.52
2018-02-25T03:34:26.588Z,1027.49
2018-02-25T03:35:07.141Z,1027.52
2018-02-25T03:35:47.677Z,1027.51
2018-02-25T03:36:28.257Z,1027.51
2018-02-25T03:37:08.794Z,1027.52
2018-02-25T03:37:49.419Z,1027.53
2018-02-25T03:38:29.970Z,1027.54
2018-02-25T03:39:10.601Z,1027.51
2018-02-25T03:39:51.158Z,1027.53
2018-02-25T03:40:31.750Z,1027.56
2018-02-25T03:41:12.258Z,1027.52
2018-02-25T03:41:52.812Z,1027.51
2018-02-25T03:42:33.387Z,1027.52
2018-02-25T03:43:13.903Z,1027.52
2018-02-25T03:43:54.506Z,1027.49
2018-02-25T03:44:35.088Z,1027.46
2018-02-25T03:45:15.613Z,1027.52
2018-02-25T03:45:56.246Z,1027.48
2018-02-25T03:46:36.798Z,1027.5
2018-02-25T03:47:17.355Z,1027.49
2018-02-25T03:47:57.919Z,1027.46
2018-02-25T03:48:38.446Z,1027.41
2018-02-25T03:49:19.002Z,1027.52
2018-02-25T03:49:59.558Z,1027.48
2018-02-25T03:50:40.129Z,1027.46
2018-02-25T03:51:20.681Z,1027.49
2018-02-25T03:52:01.273Z,1027.46
2018-02-25T03:52:41.818Z,1027.41
2018-02-25T03:53:22.355Z,1027.49
2018-02-25T03:54:02.965Z,1027.49
2018-02-25T03:54:43.512Z,1027.51
2018-02-25T03:55:24.065Z,1027.49
2018-02-25T03:56:04.644Z,1027.46
2018-02-25T03:56:45.166Z,1027.48
2018-02-25T03:57:25.722Z,1027.49
2018-02-25T03:58:06.282Z,1027.42
2018-02-25T03:58:46.851Z,1027.41
2018-02-25T03:59:27.412Z,1027.46
2018-02-25T04:00:07.986Z,1027.41
2018-02-25T04:00:48.588Z,1027.43
2018-02-25T04:01:29.130Z,1027.4
2018-02-25T04:02:09.687Z,1027.4
2018-02-25T04:02:50.348Z,1027.38
2018-02-25T04:03:30.903Z,1027.4
2018-02-25T04:04:11.522Z,1027.4
2018-02-25T04:04:52.104Z,1027.42
2018-02-25T04:05:32.685Z,1027.41
2018-02-25T04:06:13.229Z,1027.37
2018-02-25T04:06:53.784Z,1027.39
2018-02-25T04:07:34.352Z,1027.39
2018-02-25T04:08:14.942Z,1027.41
2018-02-25T04:08:55.508Z,1027.42
2018-02-25T04:09:36.060Z,1027.4
2018-02-25T04:10:16.641Z,1027.39
2018-02-25T04:10:57.193Z,1027.35
2018-02-25T04:11:37.750Z,1027.39
2018-02-25T04:12:18.308Z,1027.39
2018-02-25T04:12:58.856Z,1027.4
2018-02-25T04:13:39.387Z,1027.4
2018-02-25T04:14:19.936Z,1027.35
2018-02-25T04:15:00.497Z,1027.38
2018-02-25T04:15:41.049Z,1027.38
2018-02-25T04:16:21.647Z,1027.4
2018-02-25T04:17:02.180Z,1027.37
2018-02-25T04:17:42.734Z,1027.38
2018-02-25T04:18:23.283Z,1027.35
2018-02-25T04:19:03.853Z,1027.37
2018-02-25T04:19:44.392Z,1027.41
2018-02-25T04:20:24.947Z,1027.4
2018-02-25T04:21:05.517Z,1027.36
2018-02-25T04:21:46.083Z,1027.41
2018-02-25T04:22:26.613Z,1027.4
2018-02-25T04:23:07.157Z,1027.43
2018-02-25T04:23:47.701Z,1027.43
2018-02-25T04:24:28.241Z,1027.4
2018-02-25T04:25:08.829Z,1027.39
2018-02-25T04:25:49.396Z,1027.4
2018-02-25T04:26:29.981Z,1027.39
2018-02-25T04:27:10.499Z,1027.43
2018-02-25T04:27:51.083Z,1027.4
2018-02-25T04:28:31.641Z,1027.42
2018-02-25T04:29:12.185Z,1027.41
2018-02-25T04:29:52.762Z,1027.43
2018-02-25T04:30:33.310Z,1027.36
2018-02-25T04:31:13.859Z,1027.43
2018-02-25T04:31:54.440Z,1027.41
2018-02-25T04:32:35.009Z,1027.37
2018-02-25T04:33:15.586Z,1027.39
2018-02-25T04:33:56.198Z,1027.37
2018-02-25T04:34:36.692Z,1027.35
2018-02-25T04:35:17.190Z,1027.33
2018-02-25T04:35:57.763Z,1027.38
2018-02-25T04:36:38.291Z,1027.38
2018-02-25T04:37:18.842Z,1027.35
2018-02-25T04:37:59.421Z,1027.34
2018-02-25T04:38:39.969Z,1027.33
2018-02-25T04:39:20.505Z,1027.35
2018-02-25T04:40:01.067Z,1027.3
2018-02-25T04:40:41.615Z,1027.29
2018-02-25T04:41:22.156Z,1027.31
2018-02-25T04:42:02.728Z,1027.33
2018-02-25T04:42:43.267Z,1027.29
2018-02-25T04:43:23.781Z,1027.31
2018-02-25T04:44:04.348Z,1027.27
2018-02-25T04:44:44.890Z,1027.31
2018-02-25T04:45:25.441Z,1027.32
2018-02-25T04:46:06.001Z,1027.35
2018-02-25T04:46:46.591Z,1027.28
2018-02-25T04:47:27.164Z,1027.3
2018-02-25T04:48:07.712Z,1027.31
2018-02-25T04:48:48.247Z,1027.3
2018-02-25T04:49:28.774Z,1027.31
2018-02-25T04:50:09.328Z,1027.3
2018-02-25T04:50:49.916Z,1027.29
2018-02-25T04:51:30.457Z,1027.29
2018-02-25T04:52:11.054Z,1027.26
2018-02-25T04:52:51.586Z,1027.27
2018-02-25T04:53:32.160Z,1027.24
2018-02-25T04:54:12.738Z,1027.24
2018-02-25T04:54:53.297Z,1027.29
2018-02-25T04:55:33.832Z,1027.27
2018-02-25T04:56:14.390Z,1027.33
2018-02-25T04:56:54.917Z,1027.31
2018-02-25T04:57:35.482Z,1027.32
2018-02-25T04:58:16.079Z,1027.32
2018-02-25T04:58:56.615Z,1027.35
2018-02-25T04:59:37.177Z,1027.42
2018-02-25T05:00:17.744Z,1027.37
2018-02-25T05:00:58.278Z,1027.35
2018-02-25T05:01:38.793Z,1027.4
2018-02-25T05:02:19.340Z,1027.35
2018-02-25T05:02:59.887Z,1027.35
2018-02-25T05:03:40.464Z,1027.34
2018-02-25T05:04:21.017Z,1027.32
2018-02-25T05:05:01.549Z,1027.32
2018-02-25T05:05:42.174Z,1027.32
2018-02-25T05:06:22.757Z,1027.32
2018-02-25T05:07:03.315Z,1027.3
2018-02-25T05:07:43.883Z,1027.29
2018-02-25T05:08:24.416Z,1027.32
2018-02-25T05:09:04.951Z,1027.29
2018-02-25T05:09:45.577Z,1027.31
2018-02-25T05:10:26.165Z,1027.29
2018-02-25T05:11:06.668Z,1027.3
2018-02-25T05:11:47.222Z,1027.3
2018-02-25T05:12:27.754Z,1027.32
2018-02-25T05:13:08.330Z,1027.26
2018-02-25T05:13:48.908Z,1027.3
2018-02-25T05:14:29.430Z,1027.3
2018-02-25T05:15:09.996Z,1027.31
2018-02-25T05:15:50.572Z,1027.31
2018-02-25T05:16:31.102Z,1027.29
2018-02-25T05:17:11.687Z,1027.29
2018-02-25T05:17:52.288Z,1027.3
2018-02-25T05:18:32.837Z,1027.25
2018-02-25T05:19:13.415Z,1027.26
2018-02-25T05:19:53.953Z,1027.27
2018-02-25T05:20:34.737Z,1027.22
2018-02-25T05:21:15.293Z,1027.26
2018-02-25T05:21:55.904Z,1027.28
2018-02-25T05:22:36.532Z,1027.26
2018-02-25T05:23:17.097Z,1027.26
2018-02-25T05:23:57.665Z,1027.26
2018-02-25T05:24:38.220Z,1027.26
2018-02-25T05:25:18.812Z,1027.3
2018-02-25T05:25:59.383Z,1027.32
2018-02-25T05:26:39.967Z,1027.3
2018-02-25T05:27:20.554Z,1027.28
2018-02-25T05:28:01.133Z,1027.29
2018-02-25T05:28:41.709Z,1027.31
2018-02-25T05:29:22.236Z,1027.3
2018-02-25T05:30:02.764Z,1027.36
2018-02-25T05:30:43.340Z,1027.36
2018-02-25T05:31:23.986Z,1027.36
2018-02-25T05:32:04.581Z,1027.32
2018-02-25T05:32:45.137Z,1027.37
2018-02-25T05:33:25.692Z,1027.35
2018-02-25T05:34:06.259Z,1027.37
2018-02-25T05:34:46.783Z,1027.38
2018-02-25T05:35:27.375Z,1027.36
2018-02-25T05:36:08.042Z,1027.32
2018-02-25T05:36:48.574Z,1027.39
2018-02-25T05:37:29.290Z,1027.39
2018-02-25T05:38:09.835Z,1027.37
2018-02-25T05:38:50.437Z,1027.38
2018-02-25T05:39:30.969Z,1027.42
2018-02-25T05:40:11.535Z,1027.42
2018-02-25T05:40:52.104Z,1027.42
2018-02-25T05:41:32.681Z,1027.4
2018-02-25T05:42:13.248Z,1027.43
2018-02-25T05:42:53.802Z,1027.44
2018-02-25T05:43:34.348Z,1027.48
2018-02-25T05:44:14.920Z,1027.49
2018-02-25T05:44:55.572Z,1027.47
2018-02-25T05:45:36.184Z,1027.47
2018-02-25T05:46:16.714Z,1027.51
2018-02-25T05:46:57.275Z,1027.49
2018-02-25T05:47:37.822Z,1027.48
2018-02-25T05:48:18.370Z,1027.47
2018-02-25T05:48:58.942Z,1027.47
2018-02-25T05:49:39.476Z,1027.53
2018-02-25T05:50:20.032Z,1027.48
2018-02-25T05:51:00.637Z,1027.45
2018-02-25T05:51:41.180Z,1027.49
2018-02-25T05:52:21.761Z,1027.49
2018-02-25T05:53:02.303Z,1027.52
2018-02-25T05:53:42.836Z,1027.5
2018-02-25T05:54:23.429Z,1027.5
2018-02-25T05:55:04.000Z,1027.49
2018-02-25T05:55:44.553Z,1027.54
2018-02-25T05:56:25.092Z,1027.55
2018-02-25T05:57:05.644Z,1027.54
2018-02-25T05:57:46.204Z,1027.53
2018-02-25T05:58:26.809Z,1027.53
2018-02-25T05:59:07.360Z,1027.54
2018-02-25T05:59:47.903Z,1027.54
2018-02-25T06:00:28.478Z,1027.55
2018-02-25T06:01:09.032Z,1027.56
2018-02-25T06:01:49.584Z,1027.59
2018-02-25T06:02:30.130Z,1027.56
2018-02-25T06:03:10.698Z,1027.56
2018-02-25T06:03:51.280Z,1027.57
2018-02-25T06:04:31.878Z,1027.54
2018-02-25T06:05:14.072Z,1027.56
2018-02-25T06:05:54.612Z,1027.55
2018-02-25T06:06:35.167Z,1027.59
2018-02-25T06:07:15.746Z,1027.62
2018-02-25T06:07:56.408Z,1027.62
2018-02-25T06:08:36.977Z,1027.63
2018-02-25T06:09:17.657Z,1027.62
2018-02-25T06:09:58.215Z,1027.62
2018-02-25T06:10:38.739Z,1027.62
2018-02-25T06:11:19.304Z,1027.63
2018-02-25T06:11:59.854Z,1027.61
2018-02-25T06:12:40.400Z,1027.6
2018-02-25T06:13:20.978Z,1027.56
2018-02-25T06:14:01.554Z,1027.63
2018-02-25T06:14:42.095Z,1027.63
2018-02-25T06:15:22.645Z,1027.59
2018-02-25T06:16:03.194Z,1027.66
2018-02-25T06:16:43.764Z,1027.61
2018-02-25T06:17:24.313Z,1027.64
2018-02-25T06:18:04.858Z,1027.62
2018-02-25T06:18:45.391Z,1027.63
2018-02-25T06:19:25.938Z,1027.65
2018-02-25T06:20:06.502Z,1027.62
2018-02-25T06:20:47.114Z,1027.61
2018-02-25T06:21:27.645Z,1027.68
2018-02-25T06:22:08.213Z,1027.66
2018-02-25T06:22:48.764Z,1027.7
2018-02-25T06:23:29.320Z,1027.66
2018-02-25T06:24:09.868Z,1027.67
2018-02-25T06:24:50.426Z,1027.63
2018-02-25T06:25:30.973Z,1027.63
2018-02-25T06:26:11.576Z,1027.67
2018-02-25T06:26:52.130Z,1027.69
2018-02-25T06:27:32.687Z,1027.69
2018-02-25T06:28:13.270Z,1027.71
2018-02-25T06:28:53.823Z,1027.68
2018-02-25T06:29:34.378Z,1027.73
2018-02-25T06:30:15.030Z,1027.69
2018-02-25T06:30:55.631Z,1027.69
2018-02-25T06:31:36.177Z,1027.68
2018-02-25T06:32:16.710Z,1027.68
2018-02-25T06:32:57.293Z,1027.67
2018-02-25T06:33:37.888Z,1027.69
2018-02-25T06:34:18.482Z,1027.69
2018-02-25T06:34:59.047Z,1027.69
2018-02-25T06:35:39.617Z,1027.69
2018-02-25T06:36:20.192Z,1027.71
2018-02-25T06:37:00.799Z,1027.68
2018-02-25T06:37:41.383Z,1027.65
2018-02-25T06:38:21.909Z,1027.63
2018-02-25T06:39:02.515Z,1027.69
2018-02-25T06:39:43.101Z,1027.69
2018-02-25T06:40:23.675Z,1027.67
2018-02-25T06:41:04.236Z,1027.63
2018-02-25T06:41:44.768Z,1027.64
2018-02-25T06:42:25.397Z,1027.67
2018-02-25T06:43:06.022Z,1027.64
2018-02-25T06:43:46.636Z,1027.67
2018-02-25T06:44:27.231Z,1027.68
2018-02-25T06:45:07.798Z,1027.63
2018-02-25T06:45:48.360Z,1027.65
2018-02-25T06:46:28.915Z,1027.63
2018-02-25T06:47:09.480Z,1027.67
2018-02-25T06:47:50.046Z,1027.68
2018-02-25T06:48:30.575Z,1027.64
2018-02-25T06:49:11.216Z,1027.64
2018-02-25T06:49:51.795Z,1027.65
2018-02-25T06:50:32.467Z,1027.63
2018-02-25T06:51:13.101Z,1027.65
2018-02-25T06:51:53.674Z,1027.69
2018-02-25T06:52:34.239Z,1027.63
2018-02-25T06:53:14.793Z,1027.65
2018-02-25T06:53:55.353Z,1027.64
2018-02-25T06:54:35.903Z,1027.65
2018-02-25T06:55:16.574Z,1027.66
2018-02-25T06:57:29.351Z,1027.63
2018-02-25T06:58:10.138Z,1027.65
2018-02-25T06:58:50.749Z,1027.6
2018-02-25T06:59:31.342Z,1027.64
2018-02-25T07:00:11.894Z,1027.61
2018-02-25T07:00:52.477Z,1027.63
2018-02-25T07:01:33.018Z,1027.6
2018-02-25T07:02:13.574Z,1027.65
2018-02-25T07:02:54.130Z,1027.66
2018-02-25T07:03:35.622Z,1027.66
2018-02-25T07:04:16.168Z,1027.61
2018-02-25T07:04:56.713Z,1027.64
2018-02-25T07:05:37.257Z,1027.61
2018-02-25T07:06:17.801Z,1027.59
2018-02-25T07:06:58.355Z,1027.68
2018-02-25T07:07:38.899Z,1027.65
2018-02-25T07:08:19.437Z,1027.68
2018-02-25T07:09:00.003Z,1027.71
2018-02-25T07:09:40.545Z,1027.66
2018-02-25T07:10:21.108Z,1027.66
2018-02-25T07:11:01.650Z,1027.71
2018-02-25T07:11:42.196Z,1027.7
2018-02-25T07:12:22.727Z,1027.67
2018-02-25T07:13:03.299Z,1027.72
2018-02-25T07:13:43.850Z,1027.71
2018-02-25T07:14:24.421Z,1027.72
2018-02-25T07:15:05.044Z,1027.74
2018-02-25T07:15:45.550Z,1027.73
2018-02-25T07:16:26.101Z,1027.71
2018-02-25T07:17:06.664Z,1027.75
2018-02-25T07:17:47.210Z,1027.74
2018-02-25T07:18:27.767Z,1027.74
2018-02-25T07:19:08.331Z,1027.77
2018-02-25T07:19:48.879Z,1027.75
2018-02-25T07:20:29.433Z,1027.75
2018-02-25T07:21:09.974Z,1027.75
2018-02-25T07:21:50.503Z,1027.74
2018-02-25T07:22:31.056Z,1027.7
2018-02-25T07:23:12.299Z,1027.68
2018-02-25T07:23:52.985Z,1027.72
2018-02-25T07:24:33.858Z,1027.76
2018-02-25T07:25:14.613Z,1027.76
2018-02-25T07:25:55.416Z,1027.74
2018-02-25T07:26:36.198Z,1027.76
2018-02-25T07:27:17.029Z,1027.74
2018-02-25T07:27:57.845Z,1027.77
2018-02-25T07:28:38.389Z,1027.74
2018-02-25T07:29:19.064Z,1027.74
2018-02-25T07:29:59.750Z,1027.71
2018-02-25T07:30:40.298Z,1027.77
2018-02-25T07:31:20.858Z,1027.76
2018-02-25T07:32:01.836Z,1027.73
2018-02-25T07:32:42.465Z,1027.75
2018-02-25T07:33:23.026Z,1027.78
2018-02-25T07:34:03.630Z,1027.73
2018-02-25T07:34:44.181Z,1027.72
2018-02-25T07:35:24.731Z,1027.71
2018-02-25T07:36:05.283Z,1027.68
2018-02-25T07:36:45.814Z,1027.7
2018-02-25T07:37:26.366Z,1027.69
2018-02-25T07:38:06.912Z,1027.72
2018-02-25T07:38:47.458Z,1027.7
2018-02-25T07:39:28.003Z,1027.73
2018-02-25T07:40:08.543Z,1027.72
2018-02-25T07:40:49.104Z,1027.72
2018-02-25T07:41:29.661Z,1027.7
2018-02-25T07:42:10.218Z,1027.73
2018-02-25T07:42:50.752Z,1027.76
2018-02-25T07:43:31.318Z,1027.75
2018-02-25T07:44:11.861Z,1027.71
2018-02-25T07:44:52.413Z,1027.74
2018-02-25T07:45:32.972Z,1027.69
2018-02-25T07:46:13.518Z,1027.78
2018-02-25T07:46:54.070Z,1027.83
2018-02-25T07:47:34.620Z,1027.74
2018-02-25T07:48:15.171Z,1027.75
2018-02-25T07:48:55.723Z,1027.76
2018-02-25T07:49:36.269Z,1027.78
2018-02-25T07:50:16.818Z,1027.8
2018-02-25T07:50:57.444Z,1027.78
2018-02-25T07:51:37.986Z,1027.79
2018-02-25T07:52:18.550Z,1027.78
2018-02-25T07:52:59.103Z,1027.78
2018-02-25T07:53:39.657Z,1027.78
2018-02-25T07:54:20.204Z,1027.81
2018-02-25T07:55:00.747Z,1027.83
2018-02-25T07:55:41.348Z,1027.78
2018-02-25T07:56:21.926Z,1027.82
2018-02-25T07:57:02.476Z,1027.82
2018-02-25T07:57:43.082Z,1027.8
2018-02-25T07:58:23.767Z,1027.78
2018-02-25T07:59:04.326Z,1027.73
2018-02-25T07:59:44.923Z,1027.82
2018-02-25T08:00:25.471Z,1027.81
2018-02-25T08:01:06.141Z,1027.84
2018-02-25T08:01:46.708Z,1027.87
2018-02-25T08:02:27.272Z,1027.96
2018-02-25T08:03:07.831Z,1027.98
2018-02-25T08:03:48.410Z,1028.03
2018-02-25T08:04:28.967Z,1028.04
2018-02-25T08:05:09.543Z,1028.09
2018-02-25T08:05:50.094Z,1028.11
2018-02-25T08:06:30.672Z,1028.05
2018-02-25T08:07:11.195Z,1027.99
2018-02-25T08:07:51.742Z,1027.98
2018-02-25T08:08:32.320Z,1027.99
2018-02-25T08:09:12.868Z,1028.02
2018-02-25T08:09:53.471Z,1028.02
2018-02-25T08:10:34.020Z,1028.06
2018-02-25T08:11:14.570Z,1028
2018-02-25T08:11:55.118Z,1028.01
2018-02-25T08:12:35.669Z,1028.02
2018-02-25T08:13:16.231Z,1028.07
2018-02-25T08:13:56.785Z,1028.1
2018-02-25T08:14:37.333Z,1028.07